This is the latest recevied weather packets stored in our database for station/object KK4MOR. If no packets are shown the sender has not sent any weather packets the latest 1 day(s).
| Time | Temp. | Humidity | Pressure | Rain* | Wind** | Luminosity | Snow |
|---|---|---|---|---|---|---|---|
| 1777988716 | 16.67° C | 73% | 1010.9 hPa | 0 mm | 0 m/s | - | - |
| 1777987832 | 16.67° C | 73% | 1011 hPa | 0 mm | 0 m/s | - | - |
| 1777986912 | 16.11° C | 74% | 1010.9 hPa | 0 mm | 0 m/s | - | - |
| 1777986021 | 15.56° C | 74% | 1011 hPa | 0 mm | 0 m/s | - | - |
| 1777985113 | 15° C | 77% | 1011.1 hPa | 0 mm | 0 m/s | - | - |
| 1777984209 | 14.44° C | 78% | 1011.3 hPa | 0 mm | 0 m/s | - | - |
| 1777983305 | 13.89° C | 79% | 1011.2 hPa | 0 mm | 0 m/s | - | - |
| 1777982403 | 13.89° C | 80% | 1010.8 hPa | 0 mm | 0 m/s | - | - |
| 1777981503 | 12.78° C | 82% | 1010.5 hPa | 0 mm | 0 m/s | - | - |
| 1777980666 | 12.78° C | 83% | 1010.3 hPa | 0 mm | 0 m/s | - | - |
| 1777979759 | 12.22° C | 83% | 1010.1 hPa | 0 mm | 0 m/s | - | - |
| 1777978878 | 11.67° C | 84% | 1010 hPa | 0 mm | 0 m/s | - | - |
| 1777977957 | 11.67° C | 83% | 1009.8 hPa | 0 mm | 0 m/s | - | - |
| 1777977055 | 12.22° C | 82% | 1009.6 hPa | 0 mm | 0 m/s | - | - |
| 1777976157 | 12.78° C | 81% | 1009.6 hPa | 0 mm | 0 m/s | - | - |
| 1777975253 | 12.22° C | 81% | 1009.6 hPa | 0 mm | 0 m/s | - | - |
| 1777974352 | 12.22° C | 82% | 1009.4 hPa | 0 mm | 0 m/s | - | - |
| 1777973450 | 12.78° C | 81% | 1009.3 hPa | 0 mm | 0 m/s | - | - |
| 1777972547 | 12.78° C | 80% | 1009.5 hPa | 0 mm | 0 m/s | - | - |
| 1777971646 | 12.78° C | 80% | 1009.5 hPa | 0 mm | 0 m/s | - | - |
| 1777970744 | 13.33° C | 79% | 1009.3 hPa | 0 mm | 0 m/s | - | - |
| 1777969841 | 13.89° C | 77% | 1009.2 hPa | 0 mm | 0 m/s | - | - |
* Rain latest hour (hover to see other rain measurements)
** Current wind speed in m/s (hover to see current wind gust speed)